Time;durP1;ratioP1;P1;durP2;ratioP2;P2;SDS_P1;SDS_P2;PMS_P1;PMS_P2;Temp;Humidity;BMP_temperature;BMP_pressure;BME280_temperature;BME280_humidity;BME280_pressure;Samples;Min_cycle;Max_cycle;Signal;HPM_P1;HPM_P2
2024/04/22 00:02:13;;;;;;;;;;;;;;;7.28;100.00;98411.53;5420572;26;19929;-89
2024/04/22 00:04:38;;;;;;;;;;;;;;;7.29;100.00;98419.34;5455924;26;19928;-88
2024/04/22 00:07:04;;;;;;;;;;;;;;;7.26;100.00;98422.16;5454143;26;20322;-89
2024/04/22 00:09:29;;;;;;;;;;;;;;;7.25;100.00;98440.63;5419805;26;19940;-89
2024/04/22 00:11:54;;;;;;;;;;;;;;;7.18;100.00;98424.25;5443820;26;19951;-90
2024/04/22 00:14:20;;;;;;;;;;;;;;;7.20;100.00;98441.13;5457578;26;19957;-90
2024/04/22 00:16:45;;;;;;;;;;;;;;;7.28;100.00;98434.31;5438674;26;20432;-90
2024/04/22 00:19:10;;;;;;;;;;;;;;;7.52;100.00;98443.28;5460999;26;19928;-89
2024/04/22 00:21:36;;;;;;;;;;;;;;;7.52;100.00;98443.28;5438284;26;19936;-89
2024/04/22 00:24:01;;;;;;;;;;;;;;;7.81;100.00;98448.19;5460451;26;19963;-88
2024/04/22 00:26:26;;;;;;;;;;;;;;;7.94;99.55;98452.66;5461764;26;20367;-88
2024/04/22 00:28:52;;;;;;;;;;;;;;;7.96;97.87;98452.97;5461643;26;20063;-89
2024/04/22 00:31:18;;;;;;;;;;;;;;;8.07;97.26;98448.06;5461746;26;19969;-89
2024/04/22 00:33:43;;;;;;;;;;;;;;;8.23;95.23;98458.31;5461021;26;19935;-89
2024/04/22 00:36:10;;;;;;;;;;;;;;;8.34;94.85;98463.59;5493170;26;19935;-90
2024/04/22 00:38:35;;;;;;;;;;;;;;;8.39;93.72;98468.59;5461046;26;19934;-89
2024/04/22 00:41:00;;;;;;;;;;;;;;;8.46;94.27;98476.72;5460974;26;19928;-89
2024/04/22 00:43:25;;;;;;;;;;;;;;;8.33;94.74;98471.09;5460372;26;19928;-88
2024/04/22 00:45:51;;;;;;;;;;;;;;;8.20;95.10;98485.91;5460166;26;19928;-89
2024/04/22 00:48:17;;;;;;;;;;;;;;;8.10;95.94;98485.72;5437024;26;19935;-88
2024/04/22 00:50:43;;;;;;;;;;;;;;;8.09;95.78;98491.63;5460013;26;19928;-89
2024/04/22 00:53:09;;;;;;;;;;;;;;;8.07;95.75;98492.06;5460674;26;19939;-88
2024/04/22 00:55:35;;;;;;;;;;;;;;;8.20;94.85;98497.69;5461188;26;19928;-89
2024/04/22 00:58:02;;;;;;;;;;;;;;;8.39;94.31;98505.16;5436886;26;20211;-88
2024/04/22 01:00:28;;;;;;;;;;;;;;;8.42;92.04;98500.78;5437966;26;20005;-89
2024/04/22 01:02:54;;;;;;;;;;;;;;;8.53;92.22;98498.56;5490446;26;19928;-88
2024/04/22 01:05:19;;;;;;;;;;;;;;;8.61;92.03;98499.97;5460416;26;19936;-88
2024/04/22 01:07:45;;;;;;;;;;;;;;;8.65;92.16;98506.16;5459944;26;19936;-89
2024/04/22 01:10:10;;;;;;;;;;;;;;;8.66;92.25;98504.97;5475947;26;19928;-87
2024/04/22 01:12:35;;;;;;;;;;;;;;;8.65;91.83;98506.16;5460711;26;19942;-87
2024/04/22 01:15:01;;;;;;;;;;;;;;;8.64;92.48;98514.84;5460515;26;19973;-87
2024/04/22 01:17:37;;;;;;;;;;;;;;;8.54;92.72;98511.16;5460261;26;19935;-88
2024/04/22 01:20:02;;;;;;;;;;;;;;;8.53;92.79;98512.34;5492267;26;19972;-87
2024/04/22 01:22:27;;;;;;;;;;;;;;;8.42;94.48;98512.59;5459962;26;20298;-88
2024/04/22 01:24:53;;;;;;;;;;;;;;;8.32;95.32;98510.06;5459553;26;20364;-88
2024/04/22 01:27:20;;;;;;;;;;;;;;;8.20;95.38;98507.94;5459947;26;19928;-87
2024/04/22 01:29:45;;;;;;;;;;;;;;;8.14;96.16;98515.88;5460424;26;20409;-89
2024/04/22 01:32:10;;;;;;;;;;;;;;;8.09;96.53;98517.16;5459990;26;19940;-87
2024/04/22 01:34:36;;;;;;;;;;;;;;;8.06;97.24;98520.78;5460081;26;19928;-87
2024/04/22 01:37:01;;;;;;;;;;;;;;;7.94;97.71;98526.91;5459340;26;19935;-89
2024/04/22 01:39:26;;;;;;;;;;;;;;;7.89;99.07;98526.63;5460019;26;20352;-88
2024/04/22 01:41:51;;;;;;;;;;;;;;;7.73;100.00;98541.06;5491871;26;19935;-88
2024/04/22 01:44:17;;;;;;;;;;;;;;;7.57;100.00;98539.00;5460003;26;19997;-88
2024/04/22 01:46:42;;;;;;;;;;;;;;;7.37;100.00;98540.91;5459412;26;19928;-86
2024/04/22 01:49:08;;;;;;;;;;;;;;;7.22;100.00;98551.38;5459278;26;19996;-88
2024/04/22 01:51:33;;;;;;;;;;;;;;;7.15;100.00;98551.50;5459157;26;19928;-86
2024/04/22 01:53:58;;;;;;;;;;;;;;;7.09;100.00;98560.63;5459295;26;20550;-88
2024/04/22 01:56:24;;;;;;;;;;;;;;;6.96;100.00;98552.19;5490975;26;19996;-87
2024/04/22 01:58:51;;;;;;;;;;;;;;;6.77;100.00;98558.34;5459929;26;20258;-89
2024/04/22 02:01:16;;;;;;;;;;;;;;;6.66;100.00;98557.72;5489668;26;19940;-88
2024/04/22 02:03:42;;;;;;;;;;;;;;;6.74;100.00;98562.72;5459673;26;20354;-88
2024/04/22 02:06:07;;;;;;;;;;;;;;;6.78;100.00;98559.91;5459387;26;19932;-88
2024/04/22 02:08:32;;;;;;;;;;;;;;;6.73;100.00;98552.91;5459268;26;20267;-88
2024/04/22 02:10:57;;;;;;;;;;;;;;;6.70;100.00;98555.69;5458762;26;19998;-89
2024/04/22 02:13:24;;;;;;;;;;;;;;;6.65;100.00;98554.19;5459554;26;19928;-88
2024/04/22 02:15:49;;;;;;;;;;;;;;;6.63;100.00;98553.06;5459114;26;19935;-89
2024/04/22 02:18:14;;;;;;;;;;;;;;;6.57;100.00;98552.00;5459287;26;19928;-87
2024/04/22 02:20:40;;;;;;;;;;;;;;;6.52;100.00;98553.97;5458169;26;20352;-87
2024/04/22 02:23:05;;;;;;;;;;;;;;;6.57;100.00;98560.22;5458615;26;19940;-87
2024/04/22 02:25:30;;;;;;;;;;;;;;;6.62;100.00;98566.03;5458596;26;19943;-89
2024/04/22 02:27:55;;;;;;;;;;;;;;;6.54;100.00;98562.59;5459413;26;19939;-87
2024/04/22 02:30:21;;;;;;;;;;;;;;;6.49;100.00;98568.53;5458915;26;19928;-88
2024/04/22 02:32:46;;;;;;;;;;;;;;;6.46;100.00;98571.31;5439283;26;19929;-88
2024/04/22 02:35:11;;;;;;;;;;;;;;;6.42;100.00;98565.09;5430886;26;19927;-88
2024/04/22 02:37:36;;;;;;;;;;;;;;;6.33;100.00;98571.09;5459112;26;19973;-87
2024/04/22 02:40:02;;;;;;;;;;;;;;;6.34;100.00;98564.41;5458779;26;19928;-87
2024/04/22 02:42:27;;;;;;;;;;;;;;;6.27;100.00;98582.94;5458630;26;19932;-89
2024/04/22 02:44:52;;;;;;;;;;;;;;;6.19;100.00;98574.03;5435281;26;19936;-88
2024/04/22 02:47:18;;;;;;;;;;;;;;;6.06;100.00;98573.00;5490445;26;19928;-89
2024/04/22 02:49:43;;;;;;;;;;;;;;;6.03;100.00;98571.84;5458597;26;19939;-88
2024/04/22 02:52:08;;;;;;;;;;;;;;;6.07;100.00;98571.81;5459048;26;19928;-89
2024/04/22 02:54:33;;;;;;;;;;;;;;;6.07;100.00;98571.81;5458963;26;19927;-88
2024/04/22 02:56:59;;;;;;;;;;;;;;;6.13;100.00;98583.88;5458946;26;20414;-89
2024/04/22 02:59:24;;;;;;;;;;;;;;;6.14;100.00;98588.19;5458272;26;19928;-88
2024/04/22 03:01:50;;;;;;;;;;;;;;;6.15;100.00;98586.97;5458914;26;19996;-88
2024/04/22 03:04:15;;;;;;;;;;;;;;;6.09;100.00;98585.88;5458612;26;19928;-89
2024/04/22 03:06:40;;;;;;;;;;;;;;;6.11;100.00;98603.47;5458725;26;19939;-90
2024/04/22 03:09:05;;;;;;;;;;;;;;;6.11;100.00;98605.44;5458549;26;20352;-89
2024/04/22 03:11:31;;;;;;;;;;;;;;;6.11;100.00;98608.19;5458161;26;19927;-89
2024/04/22 03:13:56;;;;;;;;;;;;;;;6.12;100.00;98623.47;5458715;26;20345;-88
2024/04/22 03:16:21;;;;;;;;;;;;;;;6.19;100.00;98612.44;5458330;26;19996;-89
2024/04/22 03:18:47;;;;;;;;;;;;;;;6.22;100.00;98616.28;5489788;26;19940;-87
2024/04/22 03:21:12;;;;;;;;;;;;;;;6.25;100.00;98621.75;5440072;26;19928;-88
2024/04/22 03:23:37;;;;;;;;;;;;;;;6.23;100.00;98623.34;5478070;26;19942;-88
2024/04/22 03:26:03;;;;;;;;;;;;;;;6.22;100.00;98630.78;5439592;26;19932;-86
2024/04/22 03:28:28;;;;;;;;;;;;;;;6.21;100.00;98637.47;5457636;26;19951;-88
2024/04/22 03:30:53;;;;;;;;;;;;;;;6.17;100.00;98625.75;5458428;26;19928;-91
2024/04/22 03:33:18;;;;;;;;;;;;;;;6.17;100.00;98633.22;5459885;26;20352;-88
2024/04/22 03:35:44;;;;;;;;;;;;;;;6.08;100.00;98633.72;5462486;26;19947;-87
2024/04/22 03:38:09;;;;;;;;;;;;;;;6.10;100.00;98636.81;5461358;26;20352;-90
2024/04/22 03:40:35;;;;;;;;;;;;;;;6.18;100.00;98635.56;5462366;26;19935;-88
2024/04/22 03:43:00;;;;;;;;;;;;;;;6.22;100.00;98646.47;5494177;26;19931;-88
2024/04/22 03:45:25;;;;;;;;;;;;;;;6.21;100.00;98653.91;5471459;26;19928;-90
2024/04/22 03:50:37;;;;;;;;;;;;;;;6.49;100.00;98664.59;5494299;26;20004;-89
2024/04/22 03:53:02;;;;;;;;;;;;;;;6.76;100.00;98664.66;5461394;26;19960;-89
2024/04/22 03:55:27;;;;;;;;;;;;;;;7.11;100.00;98668.13;5494296;26;19928;-89
2024/04/22 03:57:53;;;;;;;;;;;;;;;7.57;100.00;98670.19;5453610;26;19936;-89
2024/04/22 04:00:18;;;;;;;;;;;;;;;7.95;98.28;98676.25;5425781;26;20444;-88
2024/04/22 04:02:43;;;;;;;;;;;;;;;8.50;96.33;98681.13;5450092;26;19939;-88
2024/04/22 04:05:08;;;;;;;;;;;;;;;9.19;90.41;98682.09;5476452;26;19928;-89
2024/04/22 04:07:34;;;;;;;;;;;;;;;9.63;83.48;98680.69;5453827;26;19936;-88
2024/04/22 04:09:59;;;;;;;;;;;;;;;9.94;81.99;98692.16;5443944;26;19928;-86
2024/04/22 04:12:24;;;;;;;;;;;;;;;10.01;79.47;98689.97;5460533;26;19935;-86
2024/04/22 04:14:49;;;;;;;;;;;;;;;10.35;78.42;98702.56;5461137;26;19927;-84
2024/04/22 04:17:15;;;;;;;;;;;;;;;10.72;75.64;98698.41;5465887;26;19928;-85
2024/04/22 04:19:40;;;;;;;;;;;;;;;11.10;71.86;98704.78;5461600;26;19967;-86
2024/04/22 04:22:05;;;;;;;;;;;;;;;11.62;66.36;98711.94;5461213;26;19939;-85
2024/04/22 04:24:30;;;;;;;;;;;;;;;12.98;64.88;98712.47;5461222;26;20008;-84
2024/04/22 04:26:56;;;;;;;;;;;;;;;14.03;56.96;98712.34;5436931;26;19955;-84
2024/04/22 04:29:21;;;;;;;;;;;;;;;14.27;54.56;98715.34;5460407;26;19972;-83
2024/04/22 04:31:46;;;;;;;;;;;;;;;15.51;51.19;98722.97;5459897;26;19928;-83
2024/04/22 04:34:13;;;;;;;;;;;;;;;16.43;48.55;98727.66;5438304;26;20261;-84
2024/04/22 04:36:38;;;;;;;;;;;;;;;16.88;46.72;98734.91;5460058;26;19928;-82
2024/04/22 04:39:03;;;;;;;;;;;;;;;17.48;45.83;98739.31;5462579;26;19935;-84
2024/04/22 04:41:29;;;;;;;;;;;;;;;18.13;43.79;98738.06;5462882;26;20246;-82
2024/04/22 04:43:55;;;;;;;;;;;;;;;18.96;42.32;98737.59;5471265;26;19941;-84
2024/04/22 04:46:22;;;;;;;;;;;;;;;19.83;40.58;98741.00;5459517;26;19997;-84
2024/04/22 04:48:47;;;;;;;;;;;;;;;20.70;38.64;98741.25;5461127;26;19996;-84
2024/04/22 04:51:12;;;;;;;;;;;;;;;21.39;37.49;98748.13;5447683;26;19936;-83
2024/04/22 04:53:38;;;;;;;;;;;;;;;22.08;35.63;98748.38;5449984;26;20274;-83
2024/04/22 04:56:03;;;;;;;;;;;;;;;21.86;35.67;98756.81;5461088;26;19991;-85
2024/04/22 04:58:28;;;;;;;;;;;;;;;22.08;35.55;98764.50;5460470;26;19953;-83
2024/04/22 05:00:54;;;;;;;;;;;;;;;22.61;35.14;98772.56;5437550;26;19928;-83
2024/04/22 05:03:19;;;;;;;;;;;;;;;23.09;34.19;98766.50;5474474;26;19950;-83
2024/04/22 05:08:49;;;;;;;;;;;;;;;24.07;32.24;98773.25;5493141;26;19931;-83
2024/04/22 05:11:14;;;;;;;;;;;;;;;21.91;34.33;98778.56;5448617;26;19955;-82
2024/04/22 05:13:42;;;;;;;;;;;;;;;20.65;36.61;98773.66;5451192;26;19928;-82
2024/04/22 05:16:08;;;;;;;;;;;;;;;20.42;36.58;98782.47;5447697;26;19935;-82
2024/04/22 05:18:33;;;;;;;;;;;;;;;19.75;37.26;98787.56;5458754;26;19928;-81
2024/04/22 05:20:58;;;;;;;;;;;;;;;20.27;35.99;98791.00;5466642;26;19936;-82
2024/04/22 05:23:24;;;;;;;;;;;;;;;18.72;38.85;98793.81;5458369;26;19932;-82
2024/04/22 05:25:49;;;;;;;;;;;;;;;18.52;42.61;98796.56;5454724;26;20365;-81
2024/04/22 05:28:15;;;;;;;;;;;;;;;20.33;38.34;98791.84;5455700;26;20356;-81
2024/04/22 05:30:41;;;;;;;;;;;;;;;20.01;37.57;98801.53;5455489;26;20409;-83
2024/04/22 05:36:09;;;;;;;;;;;;;;;20.48;37.08;98791.69;5456319;26;19939;-82
2024/04/22 05:36:11;;;;;;;;;;;;;;;19.23;39.65;98803.59;5487623;26;19928;-83
2024/04/22 05:38:40;;;;;;;;;;;;;;;19.61;36.90;98802.47;5456502;26;19928;-82
2024/04/22 05:41:05;;;;;;;;;;;;;;;19.69;38.38;98800.75;5459461;26;19928;-82
2024/04/22 05:43:31;;;;;;;;;;;;;;;20.57;35.93;98803.47;5458898;26;19928;-81
2024/04/22 05:45:56;;;;;;;;;;;;;;;20.29;35.52;98810.91;5459063;26;19996;-82
2024/04/22 05:48:21;;;;;;;;;;;;;;;21.74;33.25;98815.13;5459095;26;19934;-81
2024/04/22 05:50:47;;;;;;;;;;;;;;;22.81;31.56;98821.44;5459209;26;20294;-82
2024/04/22 05:53:12;;;;;;;;;;;;;;;23.88;30.29;98809.84;5458843;26;19939;-82
2024/04/22 05:55:37;;;;;;;;;;;;;;;24.71;29.11;98819.63;5458504;26;20256;-83
2024/04/22 05:58:03;;;;;;;;;;;;;;;24.71;28.51;98818.88;5458162;26;19928;-81
2024/04/22 06:00:28;;;;;;;;;;;;;;;25.45;26.85;98823.88;5458223;26;20325;-81
2024/04/22 06:02:55;;;;;;;;;;;;;;;26.05;26.33;98828.38;5458020;26;19927;-83
2024/04/22 06:05:20;;;;;;;;;;;;;;;27.27;25.55;98825.38;5444850;26;20303;-81
2024/04/22 06:07:46;;;;;;;;;;;;;;;26.62;26.40;98832.59;5448002;26;19936;-81
2024/04/22 06:10:11;;;;;;;;;;;;;;;26.96;26.05;98832.72;5458580;26;19932;-81
2024/04/22 06:12:36;;;;;;;;;;;;;;;27.00;25.75;98831.09;5457822;26;19940;-81
2024/04/22 06:15:02;;;;;;;;;;;;;;;27.41;25.39;98836.16;5458114;26;19928;-83
2024/04/22 06:17:27;;;;;;;;;;;;;;;26.80;24.84;98842.28;5457445;26;19928;-85
2024/04/22 06:19:52;;;;;;;;;;;;;;;26.88;25.64;98837.50;5460051;26;19935;-80
2024/04/22 06:22:18;;;;;;;;;;;;;;;27.94;24.41;98836.00;5458870;26;19940;-80
2024/04/22 06:24:43;;;;;;;;;;;;;;;27.69;24.64;98843.31;5459332;26;20367;-81
2024/04/22 06:27:08;;;;;;;;;;;;;;;27.77;24.10;98842.09;5460905;26;19936;-81
2024/04/22 06:29:33;;;;;;;;;;;;;;;28.18;24.29;98843.47;5458448;26;20000;-82
2024/04/22 06:31:59;;;;;;;;;;;;;;;26.63;25.29;98848.28;5457918;26;19956;-81
2024/04/22 06:34:24;;;;;;;;;;;;;;;26.05;26.52;98851.03;5458788;26;20004;-82
2024/04/22 06:36:49;;;;;;;;;;;;;;;23.08;29.44;98857.22;5458665;26;19928;-81
2024/04/22 06:39:15;;;;;;;;;;;;;;;22.20;32.69;98858.88;5458622;26;19935;-81
2024/04/22 06:41:40;;;;;;;;;;;;;;;24.08;30.41;98862.31;5450726;26;20357;-82
2024/04/22 06:44:05;;;;;;;;;;;;;;;24.18;30.17;98863.53;5474019;26;20816;-82
2024/04/22 06:46:32;;;;;;;;;;;;;;;23.87;31.45;98858.38;5455710;26;19932;-81
2024/04/22 06:48:57;;;;;;;;;;;;;;;25.16;29.93;98860.78;5456211;26;19928;-82
2024/04/22 06:51:23;;;;;;;;;;;;;;;25.95;27.89;98867.69;5448338;26;19973;-81
2024/04/22 06:53:48;;;;;;;;;;;;;;;26.79;27.07;98871.94;5439164;26;19928;-83
2024/04/22 06:56:14;;;;;;;;;;;;;;;26.75;26.75;98872.28;5455777;26;19935;-82
2024/04/22 06:58:39;;;;;;;;;;;;;;;26.21;26.05;98879.13;5457100;26;19928;-82
2024/04/22 07:01:04;;;;;;;;;;;;;;;26.26;26.88;98880.34;5433490;26;20245;-82
2024/04/22 07:03:29;;;;;;;;;;;;;;;25.40;26.83;98884.13;5457192;26;19928;-82
2024/04/22 07:05:55;;;;;;;;;;;;;;;26.36;26.15;98881.47;5457337;26;20340;-81
2024/04/22 07:08:20;;;;;;;;;;;;;;;26.13;27.47;98891.59;5459418;26;19935;-82
2024/04/22 07:10:45;;;;;;;;;;;;;;;27.03;27.04;98883.88;5492592;26;20252;-81
2024/04/22 07:13:11;;;;;;;;;;;;;;;27.16;27.08;98888.03;5460952;26;19928;-81
2024/04/22 07:15:36;;;;;;;;;;;;;;;28.41;25.22;98886.28;5459909;26;20275;-82
2024/04/22 07:18:01;;;;;;;;;;;;;;;28.77;23.01;98895.72;5460503;26;19935;-82
2024/04/22 07:20:27;;;;;;;;;;;;;;;27.58;26.25;98894.66;5436877;26;19935;-82
2024/04/22 07:22:52;;;;;;;;;;;;;;;27.53;24.65;98884.97;5493154;26;20416;-82
2024/04/22 07:25:17;;;;;;;;;;;;;;;26.43;25.93;98897.84;5460160;26;19939;-82
2024/04/22 07:27:43;;;;;;;;;;;;;;;26.64;26.47;98901.56;5460927;26;19928;-81
2024/04/22 07:30:10;;;;;;;;;;;;;;;26.70;26.06;98899.41;5459810;26;19928;-81
2024/04/22 07:32:35;;;;;;;;;;;;;;;27.16;25.74;98905.03;5442947;26;19956;-82
2024/04/22 07:35:01;;;;;;;;;;;;;;;24.92;26.69;98898.31;5454241;26;20252;-82
2024/04/22 07:37:31;;;;;;;;;;;;;;;25.42;27.67;98897.72;5460879;26;19947;-82
2024/04/22 07:40:08;;;;;;;;;;;;;;;26.49;25.54;98897.75;5460064;26;20363;-82
2024/04/22 07:42:34;;;;;;;;;;;;;;;28.03;25.33;98900.13;5439736;26;19935;-81
2024/04/22 07:44:59;;;;;;;;;;;;;;;29.17;24.88;98892.56;5456988;26;19928;-82
2024/04/22 07:47:24;;;;;;;;;;;;;;;28.32;23.85;98888.31;5461531;26;19940;-82
2024/04/22 07:49:49;;;;;;;;;;;;;;;26.58;27.71;98888.84;5461230;26;19928;-83
2024/04/22 07:52:15;;;;;;;;;;;;;;;27.98;25.50;98893.22;5460825;26;19934;-81
2024/04/22 07:54:40;;;;;;;;;;;;;;;28.82;23.71;98896.88;5460106;26;19927;-81
2024/04/22 07:57:06;;;;;;;;;;;;;;;28.37;24.24;98894.41;5460889;26;19975;-79
2024/04/22 07:59:31;;;;;;;;;;;;;;;26.48;25.37;98894.13;5460897;26;20325;-80
2024/04/22 08:01:56;;;;;;;;;;;;;;;25.35;27.02;98895.50;5460819;26;19938;-80
2024/04/22 08:04:22;;;;;;;;;;;;;;;24.72;28.98;98888.97;5448057;26;19928;-83
2024/04/22 08:06:50;;;;;;;;;;;;;;;24.19;31.46;98890.47;5449319;26;19935;-82
2024/04/22 08:09:15;;;;;;;;;;;;;;;23.22;31.54;98898.41;5493585;26;19952;-81
2024/04/22 08:11:40;;;;;;;;;;;;;;;22.41;29.56;98893.19;5461902;26;19928;-81
2024/04/22 08:14:05;;;;;;;;;;;;;;;22.31;31.10;98890.63;5460771;26;20345;-82
2024/04/22 08:16:31;;;;;;;;;;;;;;;22.40;30.56;98891.66;5475002;26;19927;-82
2024/04/22 08:18:56;;;;;;;;;;;;;;;21.89;30.16;98893.63;5459525;26;19928;-83
2024/04/22 08:21:21;;;;;;;;;;;;;;;21.78;34.14;98888.00;5493394;26;19928;-83
2024/04/22 08:23:47;;;;;;;;;;;;;;;21.31;32.66;98887.59;5460082;26;19935;-83
2024/04/22 08:26:12;;;;;;;;;;;;;;;20.94;37.17;98884.06;5460101;26;19935;-82
2024/04/22 08:28:37;;;;;;;;;;;;;;;20.87;33.92;98890.94;5459549;26;19928;-82
2024/04/22 08:31:03;;;;;;;;;;;;;;;20.78;33.64;98879.13;5459972;26;19928;-83
2024/04/22 08:33:29;;;;;;;;;;;;;;;20.29;34.59;98875.47;5457588;26;19935;-83
2024/04/22 08:35:56;;;;;;;;;;;;;;;20.24;32.75;98881.81;5456677;26;19928;-84
2024/04/22 08:38:21;;;;;;;;;;;;;;;19.77;33.55;98874.75;5455926;26;19946;-83
2024/04/22 08:40:47;;;;;;;;;;;;;;;19.27;38.28;98874.94;5469623;26;19934;-82
2024/04/22 08:43:13;;;;;;;;;;;;;;;19.26;36.72;98881.03;5451206;26;19935;-83
2024/04/22 08:45:43;;;;;;;;;;;;;;;18.90;34.96;98876.75;5456582;26;19928;-83
2024/04/22 08:48:09;;;;;;;;;;;;;;;18.61;35.33;98883.22;5433680;26;19928;-84
2024/04/22 08:50:38;;;;;;;;;;;;;;;18.03;36.71;98886.84;5459946;26;19938;-83
2024/04/22 08:53:04;;;;;;;;;;;;;;;17.61;36.72;98882.28;5491190;26;19932;-83
2024/04/22 08:55:29;;;;;;;;;;;;;;;17.50;38.59;98882.06;5459397;26;19936;-83
2024/04/22 08:57:55;;;;;;;;;;;;;;;17.39;36.44;98876.25;5451013;26;19928;-84
2024/04/22 09:00:20;;;;;;;;;;;;;;;17.29;38.41;98872.00;5444567;26;20398;-83
2024/04/22 09:02:45;;;;;;;;;;;;;;;17.16;38.17;98875.03;5451049;26;20365;-83
2024/04/22 09:05:11;;;;;;;;;;;;;;;16.91;40.55;98870.72;5444117;26;19928;-84
2024/04/22 09:07:36;;;;;;;;;;;;;;;16.72;39.38;98874.09;5459258;26;19954;-84
2024/04/22 09:10:01;;;;;;;;;;;;;;;16.95;40.15;98874.09;5459194;26;19992;-84
2024/04/22 09:12:26;;;;;;;;;;;;;;;17.27;40.41;98869.69;5458603;26;19954;-84
2024/04/22 09:15:01;;;;;;;;;;;;;;;17.50;41.01;98873.66;5459799;26;19935;-82
2024/04/22 09:17:26;;;;;;;;;;;;;;;17.67;39.83;98860.03;5458490;26;20325;-83
2024/04/22 09:19:52;;;;;;;;;;;;;;;17.74;39.66;98856.84;5459420;26;19936;-84
2024/04/22 09:22:17;;;;;;;;;;;;;;;17.73;42.51;98863.69;5464431;26;20264;-83
2024/04/22 09:24:43;;;;;;;;;;;;;;;17.97;41.27;98852.41;5458252;26;20364;-83
2024/04/22 09:27:09;;;;;;;;;;;;;;;18.00;40.89;98848.66;5459131;26;19996;-83
2024/04/22 09:29:40;;;;;;;;;;;;;;;17.91;41.39;98857.91;5458710;26;20356;-84
2024/04/22 09:32:09;;;;;;;;;;;;;;;17.72;37.07;98857.34;5458241;26;19960;-83
2024/04/22 09:34:39;;;;;;;;;;;;;;;17.75;36.85;98850.78;5459499;26;19952;-84
2024/04/22 09:37:04;;;;;;;;;;;;;;;17.86;39.11;98856.56;5435265;26;19956;-83
2024/04/22 09:39:31;;;;;;;;;;;;;;;17.78;36.74;98855.41;5459245;26;19956;-84
2024/04/22 09:41:56;;;;;;;;;;;;;;;17.81;39.91;98843.28;5434819;26;19930;-84
2024/04/22 09:44:22;;;;;;;;;;;;;;;17.70;39.26;98847.91;5459478;26;19985;-84
2024/04/22 09:46:50;;;;;;;;;;;;;;;17.33;39.23;98841.84;5458865;26;19936;-84
2024/04/22 09:49:16;;;;;;;;;;;;;;;17.07;40.81;98839.59;5434988;26;19978;-84
2024/04/22 09:51:43;;;;;;;;;;;;;;;16.99;38.70;98838.41;5459173;26;20139;-85
2024/04/22 09:54:11;;;;;;;;;;;;;;;16.79;38.41;98841.03;5434042;26;19935;-84
2024/04/22 09:56:37;;;;;;;;;;;;;;;16.90;38.62;98830.09;5392221;26;19940;-84
2024/04/22 09:59:03;;;;;;;;;;;;;;;16.88;43.62;98827.00;5386203;26;19957;-84
2024/04/22 10:01:46;;;;;;;;;;;;;;;17.00;41.41;98816.84;5415310;26;19936;-83
2024/04/22 10:07:02;;;;;;;;;;;;;;;17.60;38.55;98822.06;5397104;26;20404;-84
2024/04/22 10:09:28;;;;;;;;;;;;;;;17.26;38.39;98815.06;5385698;26;20006;-84
2024/04/22 10:12:06;;;;;;;;;;;;;;;17.06;38.03;98807.31;5385121;26;19929;-83
2024/04/22 10:14:32;;;;;;;;;;;;;;;17.05;40.58;98819.00;5364761;26;19929;-84
2024/04/22 10:17:21;;;;;;;;;;;;;;;16.93;42.23;98815.22;5386252;26;19929;-82
2024/04/22 10:19:56;;;;;;;;;;;;;;;17.21;38.86;98817.75;5383894;26;19998;-84
2024/04/22 10:22:31;;;;;;;;;;;;;;;17.10;38.72;98815.53;5457309;26;21682;-84
2024/04/22 10:24:58;;;;;;;;;;;;;;;17.18;39.10;98811.09;5458458;26;19930;-84
2024/04/22 10:27:23;;;;;;;;;;;;;;;17.28;40.00;98806.22;5489885;26;19928;-83
2024/04/22 10:32:54;;;;;;;;;;;;;;;17.59;40.09;98809.34;5490202;26;20063;-83
2024/04/22 10:35:22;;;;;;;;;;;;;;;17.58;40.63;98809.81;5457738;26;19928;-83
2024/04/22 10:37:47;;;;;;;;;;;;;;;17.68;40.24;98800.88;5457230;26;19999;-83
2024/04/22 10:40:12;;;;;;;;;;;;;;;17.82;41.50;98802.13;5457537;26;19928;-83
2024/04/22 10:42:38;;;;;;;;;;;;;;;17.40;38.63;98799.59;5488240;26;19973;-83
2024/04/22 10:45:03;;;;;;;;;;;;;;;17.20;39.58;98799.47;5458397;26;19928;-83
2024/04/22 10:47:28;;;;;;;;;;;;;;;17.31;42.74;98799.66;5436682;26;20268;-82
2024/04/22 10:49:54;;;;;;;;;;;;;;;17.42;39.32;98797.84;5455562;26;19927;-83
2024/04/22 10:52:19;;;;;;;;;;;;;;;17.36;40.73;98801.81;5457200;26;19939;-84
2024/04/22 10:54:44;;;;;;;;;;;;;;;17.43;45.21;98793.81;5457397;26;19939;-83
2024/04/22 10:57:10;;;;;;;;;;;;;;;17.66;42.77;98789.41;5457473;26;19928;-81
2024/04/22 10:59:36;;;;;;;;;;;;;;;17.82;41.90;98796.53;5456320;26;19940;-82
2024/04/22 11:02:02;;;;;;;;;;;;;;;17.62;41.20;98797.22;5457500;26;20366;-83
2024/04/22 11:04:28;;;;;;;;;;;;;;;17.67;42.76;98796.53;5457669;26;19928;-83
2024/04/22 11:06:53;;;;;;;;;;;;;;;17.75;41.36;98800.50;5457409;26;19935;-83
2024/04/22 11:09:18;;;;;;;;;;;;;;;17.69;40.14;98784.88;5489720;26;19928;-82
2024/04/22 11:11:44;;;;;;;;;;;;;;;17.68;43.73;98792.50;5457599;26;19928;-83
2024/04/22 11:14:09;;;;;;;;;;;;;;;17.80;43.14;98796.25;5434176;26;19934;-82
2024/04/22 11:16:35;;;;;;;;;;;;;;;17.79;40.93;98792.66;5457905;26;19928;-82
2024/04/22 11:19:04;;;;;;;;;;;;;;;17.62;40.85;98788.06;5458026;26;20518;-83
2024/04/22 11:21:30;;;;;;;;;;;;;;;17.70;43.20;98792.00;5457610;26;19931;-83
2024/04/22 11:23:55;;;;;;;;;;;;;;;17.77;43.30;98789.63;5456260;26;19932;-82
2024/04/22 11:26:22;;;;;;;;;;;;;;;17.67;40.87;98796.53;5457789;26;20001;-83
2024/04/22 11:28:51;;;;;;;;;;;;;;;17.28;39.66;98797.84;5457332;26;20018;-83
2024/04/22 11:31:17;;;;;;;;;;;;;;;17.02;40.26;98787.22;5457237;26;19928;-83
2024/04/22 11:33:42;;;;;;;;;;;;;;;17.00;43.89;98792.47;5457428;26;19938;-82
2024/04/22 11:36:12;;;;;;;;;;;;;;;16.93;44.18;98789.31;5456808;26;20018;-83
2024/04/22 11:38:37;;;;;;;;;;;;;;;17.12;41.30;98801.09;5445200;26;19956;-83
2024/04/22 11:41:03;;;;;;;;;;;;;;;17.32;40.45;98795.63;5445355;26;19927;-82
2024/04/22 11:43:29;;;;;;;;;;;;;;;17.60;42.81;98791.31;5457035;26;19928;-83
2024/04/22 11:45:54;;;;;;;;;;;;;;;17.80;38.12;98793.44;5489246;26;19935;-83
2024/04/22 11:48:20;;;;;;;;;;;;;;;17.81;38.47;98787.38;5457310;26;19936;-84
2024/04/22 11:50:45;;;;;;;;;;;;;;;18.00;39.02;98782.34;5457837;26;19935;-82
2024/04/22 11:53:10;;;;;;;;;;;;;;;18.32;42.37;98774.16;5488661;26;19928;-83
2024/04/22 11:55:35;;;;;;;;;;;;;;;18.57;43.04;98779.09;5460724;26;19928;-82
2024/04/22 11:58:01;;;;;;;;;;;;;;;18.80;39.75;98766.19;5460398;26;19935;-82
2024/04/22 12:00:26;;;;;;;;;;;;;;;18.94;41.79;98770.91;5460426;26;19928;-82
2024/04/22 12:02:51;;;;;;;;;;;;;;;19.05;41.96;98771.03;5460554;26;19928;-83
2024/04/22 12:05:17;;;;;;;;;;;;;;;19.04;38.95;98769.53;5460675;26;19928;-83
2024/04/22 12:07:43;;;;;;;;;;;;;;;19.01;38.74;98770.50;5435812;26;19928;-82
2024/04/22 12:10:08;;;;;;;;;;;;;;;19.09;41.86;98769.56;5436737;26;20346;-83
2024/04/22 12:12:34;;;;;;;;;;;;;;;18.93;37.83;98777.75;5450201;26;19997;-82
2024/04/22 12:14:59;;;;;;;;;;;;;;;18.69;39.02;98770.38;5445854;26;19934;-83
2024/04/22 12:17:24;;;;;;;;;;;;;;;18.60;40.29;98772.53;5460556;26;20305;-83
2024/04/22 12:19:53;;;;;;;;;;;;;;;18.32;39.26;98766.56;5460073;26;19935;-83
2024/04/22 12:22:20;;;;;;;;;;;;;;;18.28;39.57;98779.94;5460329;26;19969;-83
2024/04/22 12:24:45;;;;;;;;;;;;;;;18.09;39.68;98767.47;5460159;26;19934;-83
2024/04/22 12:27:11;;;;;;;;;;;;;;;18.17;40.59;98761.00;5459303;26;20272;-82
2024/04/22 12:29:36;;;;;;;;;;;;;;;18.18;40.60;98772.94;5460215;26;19936;-82
2024/04/22 12:32:02;;;;;;;;;;;;;;;18.13;39.44;98768.06;5459223;26;20375;-82
2024/04/22 12:34:27;;;;;;;;;;;;;;;17.92;42.90;98766.44;5459584;26;19934;-83
2024/04/22 12:36:53;;;;;;;;;;;;;;;17.77;40.83;98764.47;5450263;26;19936;-82
2024/04/22 12:39:18;;;;;;;;;;;;;;;17.71;39.56;98757.22;5477432;26;19928;-82
2024/04/22 12:41:44;;;;;;;;;;;;;;;17.65;42.96;98751.56;5460117;26;19928;-82
2024/04/22 12:44:09;;;;;;;;;;;;;;;17.69;42.18;98743.75;5459925;26;19936;-82
2024/04/22 12:50:42;;;;;;;;;;;;;;;17.78;41.60;98734.50;5459665;26;19939;-82
2024/04/22 12:52:04;;;;;;;;;;;;;;;17.92;41.17;98721.72;5491786;26;19935;-82
2024/04/22 12:54:29;;;;;;;;;;;;;;;17.88;41.52;98722.69;5459267;26;19928;-83
2024/04/22 12:56:54;;;;;;;;;;;;;;;17.91;42.40;98723.75;5460212;26;19935;-83